Date,TemperatureHighF,TemperatureAvgF,TemperatureLowF,DewpointHighF,DewpointAvgF,DewpointLowF,HumidityHigh,HumidityAvg,HumidityLow,PressureMaxIn,PressureMinIn,WindSpeedMaxMPH,WindSpeedAvgMPH,GustSpeedMaxMPH,PrecipitationSumIn
2012-12-1,55,43,29,52,41,28,97,93,87,30.08,29.79,14,8,18,0.02
2012-12-2,61,51,40,52,47,38,97,85,60,29.97,29.79,9,-8,14,0.00
2012-12-3,64,54,45,60,51,40,98,91,75,29.93,29.65,26,13,29,0.04
2012-12-4,53,43,29,39,32,23,84,67,45,30.29,29.87,19,9,24,0.00
2012-12-5,37,29,20,28,20,15,85,71,50,30.40,30.13,14,7,17,0.00
2012-12-6,46,40,33,37,34,28,85,79,68,30.14,29.85,20,9,24,0.00
2012-12-7,41,37,33,36,30,27,92,77,59,29.93,29.86,14,5,16,0.00
2012-12-8,38,33,25,32,29,22,94,87,75,30.05,29.89,13,6,15,0.03
2012-12-9,34,33,29,33,32,27,96,95,89,30.02,29.71,15,8,19,0.20
2012-12-10,30,28,23,29,26,20,94,91,89,29.94,29.71,19,9,20,0.00
2012-12-11,32,25,17,26,21,15,92,83,67,30.08,29.92,18,9,22,0.00
2012-12-12,44,33,24,29,26,20,86,74,52,30.18,30.08,23,12,29,0.00
2012-12-13,46,35,28,28,26,23,82,69,48,30.16,30.02,23,12,29,0.00
2012-12-14,48,40,24,36,32,22,90,75,55,30.13,29.90,17,8,20,0.00
2012-12-15,46,42,38,45,41,36,97,93,76,29.90,29.46,22,11,26,0.70
2012-12-16,46,38,33,45,35,31,97,91,89,29.70,29.48,18,8,21,0.03
2012-12-17,33,30,28,31,27,25,95,91,86,29.71,29.66,10,3,14,0.00
2012-12-18,34,31,28,32,29,25,96,93,90,29.85,29.52,18,8,23,0.01
2012-12-19,34,32,30,31,30,28,96,92,89,30.01,29.72,24,6,25,0.00
2012-12-20,33,30,24,32,29,23,97,96,95,29.73,29.18,40,23,46,0.33
2012-12-21,24,17,10,22,13,7,94,85,77,30.21,29.68,32,18,38,0.00
2012-12-22,24,14,5,18,10,2,91,86,77,30.22,29.95,10,4,12,0.00
2012-12-23,23,17,6,20,14,4,92,90,87,30.06,29.94,13,6,18,0.00
2012-12-24,27,24,14,24,21,11,91,88,85,30.14,29.89,14,5,17,0.00
2012-12-25,19,13,6,13,9,2,88,82,76,30.36,30.15,10,4,15,0.00
2012-12-26,26,21,14,21,17,10,89,84,79,30.25,30.09,14,6,20,0.00
2012-12-27,26,20,11,22,16,8,89,85,79,30.20,30.09,11,5,14,0.00
2012-12-28,28,26,24,26,24,22,94,92,89,30.09,29.89,10,5,12,0.00
2012-12-29,24,19,10,23,16,7,94,88,84,30.22,29.88,21,11,25,0.00
2012-12-30,34,19,5,25,15,2,89,84,70,30.29,29.99,21,8,26,0.00
2012-12-31,34,21,12,25,16,6,92,81,71,30.17,29.97,20,9,25,0.00